createdAt,value
2022-08-07T00:45:41.390Z,101147.60
2022-08-07T00:48:25.118Z,101146.00
2022-08-07T00:51:06.067Z,101140.00
2022-08-07T00:53:50.155Z,101133.40
2022-08-07T00:56:30.049Z,101137.60
2022-08-07T00:59:06.898Z,101132.00
2022-08-07T01:01:44.543Z,101137.80
2022-08-07T01:04:24.806Z,101137.60
2022-08-07T01:06:58.878Z,101140.40
2022-08-07T01:09:51.223Z,101140.40
2022-08-07T01:12:30.010Z,101144.40
2022-08-07T01:15:05.388Z,101142.40
2022-08-07T01:17:40.038Z,101140.00
2022-08-07T01:20:17.473Z,101141.40
2022-08-07T01:23:00.818Z,101149.60
2022-08-07T01:25:55.642Z,101146.60
2022-08-07T01:28:31.031Z,101147.40
2022-08-07T01:31:07.845Z,101151.00
2022-08-07T01:33:55.472Z,101148.80
2022-08-07T01:36:36.286Z,101147.00
2022-08-07T01:39:19.389Z,101146.40
2022-08-07T01:42:37.628Z,101145.60
2022-08-07T01:44:56.696Z,101150.00
2022-08-07T01:48:17.762Z,101149.60
2022-08-07T01:50:28.808Z,101143.20
2022-08-07T01:53:08.554Z,101144.40
2022-08-07T01:55:50.395Z,101147.40
2022-08-07T01:58:33.056Z,101151.20
2022-08-07T02:01:25.699Z,101149.40
2022-08-07T02:04:18.418Z,101156.00
2022-08-07T02:07:00.079Z,101156.00
2022-08-07T02:09:52.648Z,101152.40
2022-08-07T02:12:32.971Z,101151.40
2022-08-07T02:15:09.135Z,101152.20
2022-08-07T02:17:51.734Z,101151.00
2022-08-07T02:20:26.701Z,101152.40
2022-08-07T02:23:06.128Z,101148.80
2022-08-07T02:26:26.653Z,101148.00
2022-08-07T02:28:40.200Z,101145.20
2022-08-07T02:31:28.142Z,101147.20
2022-08-07T02:34:11.128Z,101147.60
2022-08-07T02:36:51.608Z,101145.00
2022-08-07T02:39:42.382Z,101145.60
2022-08-07T02:42:24.622Z,101142.60
2022-08-07T02:45:01.182Z,101145.60
2022-08-07T02:47:50.658Z,101148.80
2022-08-07T02:50:25.493Z,101149.00
2022-08-07T02:53:15.729Z,101148.00
2022-08-07T02:56:03.518Z,101150.00
2022-08-07T02:58:47.370Z,101153.20
2022-08-07T03:01:36.085Z,101155.20
2022-08-07T03:04:16.710Z,101153.80
2022-08-07T03:06:53.848Z,101152.60
2022-08-07T03:09:43.628Z,101146.40
2022-08-07T03:12:22.604Z,101148.20
2022-08-07T03:15:55.756Z,101142.80
2022-08-07T03:18:34.618Z,101145.60
2022-08-07T03:21:12.163Z,101141.20
2022-08-07T03:24:17.780Z,101142.00
2022-08-07T03:26:59.098Z,101139.00
2022-08-07T03:29:44.647Z,101138.80
2022-08-07T03:32:34.990Z,101137.40
2022-08-07T03:35:17.738Z,101135.00
2022-08-07T03:37:59.457Z,101134.00
2022-08-07T03:40:36.941Z,101143.80
2022-08-07T03:43:16.717Z,101147.20
2022-08-07T03:45:55.707Z,101146.00
2022-08-07T03:48:35.089Z,101146.20
2022-08-07T03:51:47.088Z,101145.40
2022-08-07T03:54:35.128Z,101148.40
2022-08-07T03:58:34.914Z,101154.00
2022-08-07T04:00:11.577Z,101146.40
2022-08-07T04:02:56.687Z,101146.40
2022-08-07T04:05:40.901Z,101148.80
2022-08-07T04:08:27.129Z,101143.80
2022-08-07T04:12:21.252Z,101150.80
2022-08-07T04:14:32.961Z,101149.60
2022-08-07T04:16:58.808Z,101154.20
2022-08-07T04:19:34.073Z,101154.60
2022-08-07T04:22:28.466Z,101155.40
2022-08-07T04:25:08.833Z,101154.40
2022-08-07T04:27:59.430Z,101160.00
2022-08-07T04:30:43.454Z,101163.40
2022-08-07T04:33:27.611Z,101162.80
2022-08-07T04:36:02.274Z,101164.00
2022-08-07T04:38:40.690Z,101159.20
2022-08-07T04:41:19.034Z,101155.80
2022-08-07T04:44:11.723Z,101160.80
2022-08-07T04:47:08.718Z,101161.40
2022-08-07T04:50:04.211Z,101161.20
2022-08-07T04:53:03.027Z,101163.80
2022-08-07T04:58:10.890Z,101164.40
2022-08-07T04:59:17.127Z,101169.60
2022-08-07T05:01:59.445Z,101173.60
2022-08-07T05:04:44.093Z,101174.40
2022-08-07T05:07:37.091Z,101175.00
2022-08-07T05:10:30.367Z,101176.00
2022-08-07T05:13:09.880Z,101178.00
2022-08-07T05:16:06.906Z,101178.60
2022-08-07T05:18:57.360Z,101180.00
2022-08-07T05:22:00.461Z,101180.00
2022-08-07T05:24:30.704Z,101184.20
2022-08-07T05:28:02.020Z,101184.00
2022-08-07T05:30:21.220Z,101184.40
2022-08-07T05:33:10.642Z,101185.20
2022-08-07T05:35:48.174Z,101184.60
2022-08-07T05:38:59.823Z,101182.20
2022-08-07T05:41:18.352Z,101179.80
2022-08-07T05:44:12.411Z,101182.20
2022-08-07T05:46:51.142Z,101188.20
2022-08-07T05:49:40.462Z,101194.00
2022-08-07T05:52:15.590Z,101192.40
2022-08-07T05:54:56.011Z,101197.60
2022-08-07T05:57:38.071Z,101198.80
2022-08-07T06:00:18.006Z,101201.40
2022-08-07T06:03:02.937Z,101205.40
2022-08-07T06:05:40.591Z,101205.40
2022-08-07T06:08:30.951Z,101209.60
2022-08-07T06:11:05.456Z,101206.00
2022-08-07T06:14:12.292Z,101209.80
2022-08-07T06:16:38.614Z,101209.20
2022-08-07T06:19:18.086Z,101213.80
2022-08-07T06:22:16.919Z,101213.80
2022-08-07T06:25:03.045Z,101215.80
2022-08-07T06:28:00.098Z,101209.40
2022-08-07T06:30:36.179Z,101206.20
2022-08-07T06:33:16.278Z,101217.60
2022-08-07T06:36:06.643Z,101216.40
2022-08-07T06:38:59.273Z,101222.60
2022-08-07T06:42:11.100Z,101216.40
2022-08-07T06:45:18.610Z,101223.60
2022-08-07T06:47:59.846Z,101226.80
2022-08-07T06:50:47.959Z,101221.40
2022-08-07T06:55:28.411Z,101221.00
2022-08-07T06:56:49.611Z,101220.20
2022-08-07T07:00:14.349Z,101223.80
2022-08-07T07:02:54.344Z,101220.80
2022-08-07T07:06:02.901Z,101224.60
2022-08-07T07:08:26.545Z,101223.40
2022-08-07T07:11:01.166Z,101223.00
2022-08-07T07:13:57.833Z,101217.40
2022-08-07T07:16:49.522Z,101218.40
2022-08-07T07:19:55.502Z,101210.80
2022-08-07T07:22:36.805Z,101210.20
2022-08-07T07:26:33.964Z,101213.00
2022-08-07T07:28:42.636Z,101211.60
2022-08-07T07:31:24.753Z,101206.00
2022-08-07T07:34:10.503Z,101201.40
2022-08-07T07:36:53.999Z,101202.80
2022-08-07T07:39:45.453Z,101200.80
2022-08-07T07:42:32.824Z,101205.60
2022-08-07T07:45:11.180Z,101194.20
2022-08-07T07:47:53.544Z,101199.80
2022-08-07T07:50:37.240Z,101197.00
2022-08-07T07:53:23.115Z,101195.40
2022-08-07T07:56:03.008Z,101196.40
2022-08-07T07:58:41.163Z,101191.00
2022-08-07T08:02:03.336Z,101187.60
2022-08-07T08:04:14.888Z,101189.40
2022-08-07T08:06:52.259Z,101190.40
2022-08-07T08:09:29.960Z,101191.00
2022-08-07T08:12:43.191Z,101197.40
2022-08-07T08:15:14.112Z,101192.40
2022-08-07T08:17:57.573Z,101194.20
2022-08-07T08:20:36.536Z,101198.20
2022-08-07T08:23:30.108Z,101192.80
2022-08-07T08:26:29.088Z,101198.40
2022-08-07T08:29:05.200Z,101194.20
2022-08-07T08:31:58.920Z,101193.00
2022-08-07T08:34:42.114Z,101194.60
2022-08-07T08:37:59.339Z,101195.80
2022-08-07T08:40:29.314Z,101197.20
2022-08-07T08:43:21.153Z,101199.00
2022-08-07T08:46:21.850Z,101190.60
2022-08-07T08:49:09.826Z,101197.20
2022-08-07T08:52:12.580Z,101200.20
2022-08-07T08:54:55.445Z,101200.20
2022-08-07T08:57:43.530Z,101199.20
2022-08-07T09:00:21.080Z,101203.80
2022-08-07T09:03:12.074Z,101201.40
2022-08-07T09:06:01.156Z,101202.80
2022-08-07T09:08:57.931Z,101197.60
2022-08-07T09:11:55.505Z,101198.60
2022-08-07T09:14:41.847Z,101199.20
2022-08-07T09:17:58.957Z,101195.80
2022-08-07T09:20:58.362Z,101194.00
2022-08-07T09:24:33.364Z,101189.80
2022-08-07T09:27:17.913Z,101188.80
2022-08-07T09:30:08.703Z,101185.40
2022-08-07T09:33:16.558Z,101185.20
2022-08-07T09:36:13.915Z,101184.20
2022-08-07T09:38:55.527Z,101175.80
2022-08-07T09:42:03.096Z,101177.60
2022-08-07T09:47:24.305Z,101184.20
2022-08-07T09:48:04.957Z,101179.40
2022-08-07T09:51:01.552Z,101169.40
2022-08-07T09:53:40.508Z,101166.80
2022-08-07T09:56:49.796Z,101166.80
2022-08-07T10:00:00.727Z,101167.00
2022-08-07T10:04:03.768Z,101163.60
2022-08-07T10:07:03.745Z,101159.20
2022-08-07T10:10:07.035Z,101164.60
2022-08-07T10:13:54.824Z,101162.60
2022-08-07T10:16:43.170Z,101159.80
2022-08-07T10:20:04.680Z,101157.20
2022-08-07T10:24:05.410Z,101152.40
2022-08-07T10:26:51.807Z,101138.40
2022-08-07T10:29:59.682Z,101140.20
2022-08-07T10:33:15.122Z,101146.60
2022-08-07T10:36:29.875Z,101134.80
2022-08-07T10:39:19.871Z,101131.60
2022-08-07T10:42:21.054Z,101127.60
2022-08-07T10:45:45.297Z,101123.80
2022-08-07T10:48:37.711Z,101123.40
2022-08-07T10:51:57.759Z,101125.20
2022-08-07T10:54:24.933Z,101121.40
2022-08-07T10:57:15.420Z,101116.40
2022-08-07T11:00:11.604Z,101104.40
2022-08-07T11:03:24.535Z,101109.00
2022-08-07T11:06:23.045Z,101109.80
2022-08-07T11:09:11.331Z,101109.00
2022-08-07T11:11:59.371Z,101105.40
2022-08-07T11:14:59.766Z,101102.40
2022-08-07T11:17:49.556Z,101103.20
2022-08-07T11:20:31.664Z,101093.60
2022-08-07T11:23:26.239Z,101101.60
2022-08-07T11:26:14.694Z,101094.60
2022-08-07T11:28:57.672Z,101094.60
2022-08-07T11:31:45.122Z,101087.00
2022-08-07T11:34:32.571Z,101082.20
2022-08-07T11:37:18.133Z,101091.00
2022-08-07T11:40:24.646Z,101084.20
2022-08-07T11:43:15.423Z,101074.60
2022-08-07T11:46:16.920Z,101075.40
2022-08-07T11:50:18.621Z,101073.60
2022-08-07T11:53:05.206Z,101074.40
2022-08-07T11:56:09.137Z,101065.80
2022-08-07T12:00:07.807Z,101063.00
2022-08-07T12:02:38.733Z,101064.80
2022-08-07T12:05:49.218Z,101061.20
2022-08-07T12:08:31.765Z,101062.80
2022-08-07T12:11:21.479Z,101034.40
2022-08-07T12:14:11.384Z,101026.80
2022-08-07T12:16:53.604Z,101029.80
2022-08-07T12:19:56.419Z,101024.80
2022-08-07T12:22:58.598Z,101029.60
2022-08-07T12:26:06.069Z,101033.20
2022-08-07T12:29:02.532Z,101026.80
2022-08-07T12:32:02.503Z,101023.80
2022-08-07T12:34:49.101Z,101028.80
2022-08-07T12:38:11.387Z,101028.60
2022-08-07T12:40:47.861Z,101025.00
2022-08-07T12:44:04.006Z,101019.00
2022-08-07T12:46:41.331Z,101016.00
2022-08-07T12:49:44.328Z,101011.40
2022-08-07T12:52:37.758Z,101010.00
2022-08-07T12:55:24.904Z,101009.20
2022-08-07T12:58:21.253Z,101015.20
2022-08-07T13:01:20.385Z,101004.80
2022-08-07T13:04:44.112Z,101005.80
2022-08-07T13:08:18.690Z,101002.40
2022-08-07T13:11:07.307Z,101005.20
2022-08-07T13:14:03.261Z,100997.80
2022-08-07T13:16:54.972Z,100997.00
2022-08-07T13:19:50.775Z,101002.40
2022-08-07T13:22:32.670Z,101004.40
2022-08-07T13:25:24.142Z,101000.00
2022-08-07T13:28:13.473Z,100997.40
2022-08-07T13:31:01.807Z,100997.40
2022-08-07T13:34:33.683Z,100990.80
2022-08-07T13:37:38.704Z,100984.40
2022-08-07T13:40:36.459Z,100985.20
2022-08-07T13:43:21.756Z,100981.40
2022-08-07T13:46:11.893Z,100975.80
2022-08-07T13:48:59.749Z,100978.80
2022-08-07T13:52:22.353Z,100974.40
2022-08-07T13:54:36.670Z,100971.80
2022-08-07T13:57:14.705Z,100970.00
2022-08-07T14:00:02.103Z,100966.40
2022-08-07T14:02:54.140Z,100962.20
2022-08-07T14:05:37.424Z,100964.80
2022-08-07T14:08:14.704Z,100956.60
2022-08-07T14:11:14.576Z,100960.40
2022-08-07T14:13:50.504Z,100966.60
2022-08-07T14:16:32.886Z,100958.80
2022-08-07T14:20:40.866Z,100952.80
2022-08-07T14:22:35.056Z,100952.60
2022-08-07T14:25:19.539Z,100966.40
2022-08-07T14:28:16.623Z,100949.20
2022-08-07T14:30:53.348Z,100947.80
2022-08-07T14:33:44.672Z,100942.00
2022-08-07T14:36:22.149Z,100941.40
2022-08-07T14:39:06.570Z,100941.40
2022-08-07T14:42:20.514Z,100942.60
2022-08-07T14:45:20.842Z,100941.60
2022-08-07T14:47:59.626Z,100938.40
2022-08-07T14:50:37.730Z,100941.40
2022-08-07T14:53:12.600Z,100934.60
2022-08-07T14:55:55.622Z,100939.40
2022-08-07T14:58:36.811Z,100939.00
2022-08-07T15:01:22.059Z,100940.80
2022-08-07T15:06:55.058Z,100937.40
2022-08-07T15:12:34.987Z,100932.60
2022-08-07T15:18:35.757Z,100934.60
2022-08-07T15:21:44.151Z,100930.60
2022-08-07T15:25:15.511Z,100924.00
2022-08-07T15:27:18.952Z,100930.80
2022-08-07T15:30:08.694Z,100932.80
2022-08-07T15:33:04.079Z,100930.60
2022-08-07T15:38:59.099Z,100929.40
2022-08-07T15:42:43.288Z,100922.00
2022-08-07T15:44:52.110Z,100917.00
2022-08-07T15:48:00.337Z,100924.80
2022-08-07T15:50:37.741Z,100917.60
2022-08-07T15:53:21.713Z,100922.20
2022-08-07T15:56:02.847Z,100919.20
2022-08-07T15:58:52.145Z,100918.80
2022-08-07T16:01:39.282Z,100911.20
2022-08-07T16:04:17.012Z,100911.00
2022-08-07T16:06:59.641Z,100911.40
2022-08-07T16:10:14.281Z,100911.00
2022-08-07T16:13:17.654Z,100910.40
2022-08-07T16:16:47.809Z,100909.80
2022-08-07T16:19:42.849Z,100911.00
2022-08-07T16:22:55.301Z,100908.60
2022-08-07T16:26:08.526Z,100910.00
2022-08-07T16:30:07.090Z,100909.00
2022-08-07T16:32:34.703Z,100908.20
2022-08-07T16:35:51.841Z,100903.00
2022-08-07T16:39:01.398Z,100905.60
2022-08-07T16:41:59.729Z,100907.40
2022-08-07T16:45:15.486Z,100904.20
2022-08-07T16:49:10.512Z,100905.60
2022-08-07T16:51:54.517Z,100906.40
2022-08-07T16:54:56.777Z,100911.20
2022-08-07T16:58:02.126Z,100907.00
2022-08-07T17:00:54.392Z,100906.80
2022-08-07T17:03:59.921Z,100906.20
2022-08-07T17:07:03.494Z,100906.80
2022-08-07T17:10:06.763Z,100913.80
2022-08-07T17:12:53.873Z,100912.60
2022-08-07T17:15:43.772Z,100911.20
2022-08-07T17:18:38.639Z,100914.80
2022-08-07T17:21:23.928Z,100917.80
2022-08-07T17:24:23.820Z,100913.60
2022-08-07T17:27:09.302Z,100917.60
2022-08-07T17:30:14.143Z,100918.20
2022-08-07T17:34:09.283Z,100914.60
2022-08-07T17:36:20.364Z,100914.60
2022-08-07T17:39:10.621Z,100916.00
2022-08-07T17:42:02.086Z,100918.80
2022-08-07T17:44:49.933Z,100912.80
2022-08-07T17:47:42.266Z,100910.00
2022-08-07T17:50:30.189Z,100916.40
2022-08-07T17:53:23.649Z,100919.00
2022-08-07T17:56:29.117Z,100919.00
2022-08-07T17:59:17.031Z,100919.80
2022-08-07T18:02:05.365Z,100922.20
2022-08-07T18:04:55.253Z,100918.20
2022-08-07T18:07:44.918Z,100927.40
2022-08-07T18:10:37.934Z,100924.60
2022-08-07T18:13:44.858Z,100925.60
2022-08-07T18:16:34.219Z,100922.80
2022-08-07T18:21:04.096Z,100920.20
2022-08-07T18:22:31.431Z,100926.60
2022-08-07T18:25:19.022Z,100920.60
2022-08-07T18:28:33.966Z,100930.40
2022-08-07T18:31:38.817Z,100932.60
2022-08-07T18:35:00.747Z,100931.00
2022-08-07T18:38:57.913Z,100941.40
2022-08-07T18:41:16.891Z,100937.40
2022-08-07T18:44:01.960Z,100938.40
2022-08-07T18:46:48.032Z,100940.00
2022-08-07T18:50:32.778Z,100939.40
2022-08-07T18:52:56.744Z,100946.60
2022-08-07T18:55:56.155Z,100946.40
2022-08-07T18:58:59.950Z,100950.40
2022-08-07T19:02:32.623Z,100946.40
2022-08-07T19:04:59.421Z,100950.80
2022-08-07T19:07:59.508Z,100954.60
2022-08-07T19:10:51.315Z,100952.40
2022-08-07T19:13:37.229Z,100953.40
2022-08-07T19:17:04.638Z,100956.20
2022-08-07T19:23:17.665Z,100961.40
2022-08-07T19:26:23.264Z,100964.80
2022-08-07T19:31:05.118Z,100968.60
2022-08-07T19:32:25.591Z,100965.80
2022-08-07T19:35:16.179Z,100970.40
2022-08-07T19:37:58.180Z,100975.20
2022-08-07T19:40:50.591Z,100971.00
2022-08-07T19:43:49.561Z,100970.40
2022-08-07T19:46:32.399Z,100971.60
2022-08-07T19:49:16.435Z,100974.00
2022-08-07T19:52:00.294Z,100975.60
2022-08-07T19:54:55.829Z,100976.00
2022-08-07T19:58:02.555Z,100972.20
2022-08-07T20:00:39.900Z,100970.20
2022-08-07T20:03:35.236Z,100964.80
2022-08-07T20:06:15.491Z,100965.40
2022-08-07T20:09:03.372Z,100965.80
2022-08-07T20:12:22.163Z,100963.60
2022-08-07T20:14:53.776Z,100967.20
2022-08-07T20:17:38.779Z,100964.60
2022-08-07T20:20:20.564Z,100970.40
2022-08-07T20:23:23.328Z,100972.80
2022-08-07T20:26:10.276Z,100978.80
2022-08-07T20:28:47.341Z,100979.60
2022-08-07T20:31:24.640Z,100980.40
2022-08-07T20:34:01.365Z,100975.40
2022-08-07T20:36:37.350Z,100975.20
2022-08-07T20:39:17.836Z,100976.40
2022-08-07T20:42:13.689Z,100978.40
2022-08-07T20:44:50.860Z,100977.00
2022-08-07T20:47:56.565Z,100974.00
2022-08-07T20:50:25.867Z,100980.80
2022-08-07T20:53:00.386Z,100976.60
2022-08-07T20:55:35.856Z,100975.80
2022-08-07T20:58:19.604Z,100977.00
2022-08-07T21:01:19.801Z,100971.20
2022-08-07T21:04:23.568Z,100971.60
2022-08-07T21:06:58.293Z,100969.00
2022-08-07T21:09:52.988Z,100968.20
2022-08-07T21:12:37.937Z,100962.80
2022-08-07T21:15:19.014Z,100967.00
2022-08-07T21:18:02.347Z,100970.40
2022-08-07T21:20:56.229Z,100969.80
2022-08-07T21:23:50.082Z,100967.40
2022-08-07T21:26:50.481Z,100971.00
2022-08-07T21:29:33.455Z,100968.20
2022-08-07T21:32:46.755Z,100971.00
2022-08-07T21:35:16.350Z,100972.80
2022-08-07T21:38:27.477Z,100972.00
2022-08-07T21:41:11.066Z,100976.20
2022-08-07T21:44:08.199Z,100978.60
2022-08-07T21:46:59.230Z,100971.60
2022-08-07T21:50:02.518Z,100978.60
2022-08-07T21:52:50.669Z,100982.60
2022-08-07T21:55:38.536Z,100978.80
2022-08-07T21:58:32.366Z,100981.60
2022-08-07T22:01:14.344Z,100980.60
2022-08-07T22:04:00.626Z,100979.20
2022-08-07T22:06:54.127Z,100982.60
2022-08-07T22:09:53.875Z,100985.40
2022-08-07T22:12:36.107Z,100983.80
2022-08-07T22:16:43.304Z,100986.60
2022-08-07T22:18:22.987Z,100989.00
2022-08-07T22:21:04.013Z,100990.20
2022-08-07T22:23:56.050Z,100990.40
2022-08-07T22:26:44.399Z,100994.60
2022-08-07T22:29:38.060Z,100992.80
2022-08-07T22:32:34.347Z,100991.20
2022-08-07T22:35:11.228Z,100988.40
2022-08-07T22:38:03.063Z,100988.00
2022-08-07T22:41:03.005Z,100982.20
2022-08-07T22:43:48.076Z,100982.40
2022-08-07T22:47:08.958Z,100981.60
2022-08-07T22:50:20.620Z,100980.20
2022-08-07T22:54:07.672Z,100974.60
2022-08-07T22:56:34.016Z,100979.00
2022-08-07T22:59:41.587Z,100973.40
2022-08-07T23:02:36.786Z,100972.20
2022-08-07T23:06:07.565Z,100972.00
2022-08-07T23:10:05.050Z,100970.40
2022-08-07T23:12:39.372Z,100968.00
2022-08-07T23:16:06.245Z,100966.40
2022-08-07T23:18:42.675Z,100963.40
2022-08-07T23:21:36.699Z,100959.40
2022-08-07T23:24:35.275Z,100961.80
2022-08-07T23:27:33.764Z,100957.40
2022-08-07T23:30:39.252Z,100957.80
2022-08-07T23:34:34.649Z,100962.40
2022-08-07T23:37:18.627Z,100959.20
2022-08-07T23:40:13.848Z,100955.60
2022-08-07T23:43:16.905Z,100954.20
2022-08-07T23:46:03.611Z,100952.40
2022-08-07T23:49:49.935Z,100960.40
2022-08-07T23:53:06.335Z,100964.00
2022-08-07T23:55:53.448Z,100963.00
2022-08-07T23:58:54.653Z,100966.00
